sensor_id;sensor_type;location;lat;lon;timestamp;pressure;altitude;pressure_sealevel;temperature
62611;BMP280;48683;48.084;17.272;2023-07-24T00:01:11;99866.47;;;24.22
62611;BMP280;48683;48.084;17.272;2023-07-24T00:03:36;99855.94;;;24.15
62611;BMP280;48683;48.084;17.272;2023-07-24T00:06:01;99862.38;;;24.12
62611;BMP280;48683;48.084;17.272;2023-07-24T00:08:26;99861.63;;;24.11
62611;BMP280;48683;48.084;17.272;2023-07-24T00:10:51;99859.81;;;24.03
62611;BMP280;48683;48.084;17.272;2023-07-24T00:13:17;99867.34;;;24.08
62611;BMP280;48683;48.084;17.272;2023-07-24T00:15:42;99865.31;;;24.08
62611;BMP280;48683;48.084;17.272;2023-07-24T00:18:07;99864.06;;;24.04
62611;BMP280;48683;48.084;17.272;2023-07-24T00:20:32;99860.03;;;23.99
62611;BMP280;48683;48.084;17.272;2023-07-24T00:22:58;99857.53;;;24.01
62611;BMP280;48683;48.084;17.272;2023-07-24T00:25:23;99861.25;;;23.98
62611;BMP280;48683;48.084;17.272;2023-07-24T00:27:48;99863.53;;;24.00
62611;BMP280;48683;48.084;17.272;2023-07-24T00:30:13;99854.03;;;24.01
62611;BMP280;48683;48.084;17.272;2023-07-24T00:32:39;99856.84;;;24.06
62611;BMP280;48683;48.084;17.272;2023-07-24T00:35:04;99850.34;;;24.04
62611;BMP280;48683;48.084;17.272;2023-07-24T00:37:29;99847.69;;;23.89
62611;BMP280;48683;48.084;17.272;2023-07-24T00:39:54;99846.31;;;23.99
62611;BMP280;48683;48.084;17.272;2023-07-24T00:42:20;99849.53;;;23.98
62611;BMP280;48683;48.084;17.272;2023-07-24T00:44:45;99846.78;;;23.98
62611;BMP280;48683;48.084;17.272;2023-07-24T00:47:10;99845.56;;;23.99
62611;BMP280;48683;48.084;17.272;2023-07-24T00:49:35;99846.09;;;24.03
62611;BMP280;48683;48.084;17.272;2023-07-24T00:52:01;99844.19;;;23.83
62611;BMP280;48683;48.084;17.272;2023-07-24T00:54:26;99858.56;;;23.78
62611;BMP280;48683;48.084;17.272;2023-07-24T00:56:54;99835.41;;;23.53
62611;BMP280;48683;48.084;17.272;2023-07-24T00:59:20;99833.84;;;23.47
62611;BMP280;48683;48.084;17.272;2023-07-24T01:01:46;99842.94;;;23.38
62611;BMP280;48683;48.084;17.272;2023-07-24T01:04:11;99845.19;;;23.40
62611;BMP280;48683;48.084;17.272;2023-07-24T01:06:36;99842.94;;;23.38
62611;BMP280;48683;48.084;17.272;2023-07-24T01:09:02;99846.63;;;23.35
62611;BMP280;48683;48.084;17.272;2023-07-24T01:11:28;99849.44;;;23.41
62611;BMP280;48683;48.084;17.272;2023-07-24T01:13:58;99844.03;;;23.46
62611;BMP280;48683;48.084;17.272;2023-07-24T01:16:26;99837.63;;;23.49
62611;BMP280;48683;48.084;17.272;2023-07-24T01:18:54;99845.75;;;23.44
62611;BMP280;48683;48.084;17.272;2023-07-24T01:21:23;99849.44;;;23.41
62611;BMP280;48683;48.084;17.272;2023-07-24T01:26:19;99864.00;;;23.12
62611;BMP280;48683;48.084;17.272;2023-07-24T01:28:44;99854.09;;;22.94
62611;BMP280;48683;48.084;17.272;2023-07-24T01:31:10;99860.38;;;22.65
62611;BMP280;48683;48.084;17.272;2023-07-24T01:33:36;99862.69;;;22.52
62611;BMP280;48683;48.084;17.272;2023-07-24T01:36:02;99853.63;;;22.46
62611;BMP280;48683;48.084;17.272;2023-07-24T01:38:28;99859.47;;;22.39
62611;BMP280;48683;48.084;17.272;2023-07-24T01:40:56;99856.94;;;22.36
62611;BMP280;48683;48.084;17.272;2023-07-24T01:43:21;99853.56;;;22.41
62611;BMP280;48683;48.084;17.272;2023-07-24T01:45:47;99856.25;;;22.55
62611;BMP280;48683;48.084;17.272;2023-07-24T01:48:12;99859.56;;;22.59
62611;BMP280;48683;48.084;17.272;2023-07-24T01:50:37;99860.88;;;22.49
62611;BMP280;48683;48.084;17.272;2023-07-24T01:53:02;99870.16;;;22.37
62611;BMP280;48683;48.084;17.272;2023-07-24T01:57:53;99866.84;;;22.48
62611;BMP280;48683;48.084;17.272;2023-07-24T02:00:18;99859.13;;;22.32
62611;BMP280;48683;48.084;17.272;2023-07-24T02:02:43;99862.88;;;22.49
62611;BMP280;48683;48.084;17.272;2023-07-24T02:05:08;99853.72;;;22.52
62611;BMP280;48683;48.084;17.272;2023-07-24T02:07:34;99852.66;;;22.64
62611;BMP280;48683;48.084;17.272;2023-07-24T02:09:59;99850.19;;;22.66
62611;BMP280;48683;48.084;17.272;2023-07-24T02:12:24;99847.44;;;22.66
62611;BMP280;48683;48.084;17.272;2023-07-24T02:14:49;99857.22;;;22.52
62611;BMP280;48683;48.084;17.272;2023-07-24T02:17:16;99858.09;;;22.29
62611;BMP280;48683;48.084;17.272;2023-07-24T02:19:41;99855.41;;;21.91
62611;BMP280;48683;48.084;17.272;2023-07-24T02:22:07;99848.47;;;21.90
62611;BMP280;48683;48.084;17.272;2023-07-24T02:24:32;99851.72;;;21.79
62611;BMP280;48683;48.084;17.272;2023-07-24T02:26:57;99867.00;;;21.86
62611;BMP280;48683;48.084;17.272;2023-07-24T02:29:22;99859.59;;;21.86
62611;BMP280;48683;48.084;17.272;2023-07-24T02:31:48;99854.31;;;21.83
62611;BMP280;48683;48.084;17.272;2023-07-24T02:34:13;99846.03;;;22.06
62611;BMP280;48683;48.084;17.272;2023-07-24T02:36:38;99842.56;;;22.06
62611;BMP280;48683;48.084;17.272;2023-07-24T02:39:04;99851.13;;;21.99
62611;BMP280;48683;48.084;17.272;2023-07-24T02:41:29;99847.28;;;22.05
62611;BMP280;48683;48.084;17.272;2023-07-24T02:43:54;99846.69;;;22.16
62611;BMP280;48683;48.084;17.272;2023-07-24T02:46:19;99836.16;;;22.09
62611;BMP280;48683;48.084;17.272;2023-07-24T02:48:44;99843.03;;;22.04
62611;BMP280;48683;48.084;17.272;2023-07-24T02:51:10;99848.38;;;21.99
62611;BMP280;48683;48.084;17.272;2023-07-24T02:53:35;99837.28;;;21.49
62611;BMP280;48683;48.084;17.272;2023-07-24T02:56:01;99841.22;;;21.34
62611;BMP280;48683;48.084;17.272;2023-07-24T02:58:26;99831.03;;;21.10
62611;BMP280;48683;48.084;17.272;2023-07-24T03:00:51;99834.13;;;20.79
62611;BMP280;48683;48.084;17.272;2023-07-24T03:03:16;99836.38;;;20.81
62611;BMP280;48683;48.084;17.272;2023-07-24T03:05:41;99822.56;;;20.61
62611;BMP280;48683;48.084;17.272;2023-07-24T03:08:07;99849.22;;;20.57
62611;BMP280;48683;48.084;17.272;2023-07-24T03:10:32;99862.69;;;20.60
62611;BMP280;48683;48.084;17.272;2023-07-24T03:12:57;99859.75;;;20.73
62611;BMP280;48683;48.084;17.272;2023-07-24T03:15:22;99849.06;;;20.60
62611;BMP280;48683;48.084;17.272;2023-07-24T03:17:47;99859.66;;;20.58
62611;BMP280;48683;48.084;17.272;2023-07-24T03:20:17;99846.03;;;20.58
62611;BMP280;48683;48.084;17.272;2023-07-24T03:22:42;99844.72;;;20.45
62611;BMP280;48683;48.084;17.272;2023-07-24T03:25:08;99841.59;;;20.37
62611;BMP280;48683;48.084;17.272;2023-07-24T03:27:34;99851.00;;;20.27
62611;BMP280;48683;48.084;17.272;2023-07-24T03:29:59;99849.50;;;20.17
62611;BMP280;48683;48.084;17.272;2023-07-24T03:32:24;99856.56;;;20.23
62611;BMP280;48683;48.084;17.272;2023-07-24T03:34:49;99865.22;;;20.22
62611;BMP280;48683;48.084;17.272;2023-07-24T03:37:14;99866.59;;;20.08
62611;BMP280;48683;48.084;17.272;2023-07-24T03:39:40;99860.44;;;19.89
62611;BMP280;48683;48.084;17.272;2023-07-24T03:42:05;99876.19;;;19.95
62611;BMP280;48683;48.084;17.272;2023-07-24T03:44:30;99873.75;;;19.97
62611;BMP280;48683;48.084;17.272;2023-07-24T03:46:55;99873.91;;;19.93
62611;BMP280;48683;48.084;17.272;2023-07-24T03:49:21;99865.88;;;19.99
62611;BMP280;48683;48.084;17.272;2023-07-24T03:51:47;99866.66;;;19.99
62611;BMP280;48683;48.084;17.272;2023-07-24T03:54:12;99867.84;;;19.89
62611;BMP280;48683;48.084;17.272;2023-07-24T03:56:37;99873.00;;;19.87
62611;BMP280;48683;48.084;17.272;2023-07-24T03:59:03;99860.88;;;19.97
62611;BMP280;48683;48.084;17.272;2023-07-24T04:01:28;99858.78;;;19.92
62611;BMP280;48683;48.084;17.272;2023-07-24T04:03:53;99862.09;;;19.96
62611;BMP280;48683;48.084;17.272;2023-07-24T04:06:18;99858.28;;;20.12
62611;BMP280;48683;48.084;17.272;2023-07-24T04:08:43;99855.25;;;20.10
62611;BMP280;48683;48.084;17.272;2023-07-24T04:11:09;99857.06;;;20.13
62611;BMP280;48683;48.084;17.272;2023-07-24T04:13:34;99865.72;;;20.11
62611;BMP280;48683;48.084;17.272;2023-07-24T04:15:59;99866.47;;;20.03
62611;BMP280;48683;48.084;17.272;2023-07-24T04:18:24;99871.44;;;20.13
62611;BMP280;48683;48.084;17.272;2023-07-24T04:20:49;99865.69;;;20.29
62611;BMP280;48683;48.084;17.272;2023-07-24T04:23:15;99871.13;;;20.39
62611;BMP280;48683;48.084;17.272;2023-07-24T04:25:40;99872.56;;;20.58
62611;BMP280;48683;48.084;17.272;2023-07-24T04:28:05;99873.88;;;20.62
62611;BMP280;48683;48.084;17.272;2023-07-24T04:30:30;99878.53;;;20.71
62611;BMP280;48683;48.084;17.272;2023-07-24T04:32:55;99875.19;;;20.76
62611;BMP280;48683;48.084;17.272;2023-07-24T04:35:21;99877.75;;;20.79
62611;BMP280;48683;48.084;17.272;2023-07-24T04:37:46;99880.78;;;20.81
62611;BMP280;48683;48.084;17.272;2023-07-24T04:40:11;99875.25;;;20.91
62611;BMP280;48683;48.084;17.272;2023-07-24T04:42:37;99868.16;;;20.93
62611;BMP280;48683;48.084;17.272;2023-07-24T04:45:02;99872.00;;;21.01
62611;BMP280;48683;48.084;17.272;2023-07-24T04:47:27;99875.97;;;21.00
62611;BMP280;48683;48.084;17.272;2023-07-24T04:49:52;99870.19;;;21.07
62611;BMP280;48683;48.084;17.272;2023-07-24T04:52:18;99879.19;;;21.22
62611;BMP280;48683;48.084;17.272;2023-07-24T04:54:44;99878.75;;;21.24
62611;BMP280;48683;48.084;17.272;2023-07-24T04:57:09;99889.81;;;21.44
62611;BMP280;48683;48.084;17.272;2023-07-24T04:59:34;99892.69;;;21.64
62611;BMP280;48683;48.084;17.272;2023-07-24T05:01:59;99891.13;;;21.87
62611;BMP280;48683;48.084;17.272;2023-07-24T05:04:25;99890.19;;;21.90
62611;BMP280;48683;48.084;17.272;2023-07-24T05:06:50;99886.25;;;21.91
62611;BMP280;48683;48.084;17.272;2023-07-24T05:09:15;99876.53;;;21.90
62611;BMP280;48683;48.084;17.272;2023-07-24T05:11:41;99851.00;;;21.78
62611;BMP280;48683;48.084;17.272;2023-07-24T05:14:09;99860.59;;;21.89
62611;BMP280;48683;48.084;17.272;2023-07-24T05:16:34;99856.38;;;21.88
62611;BMP280;48683;48.084;17.272;2023-07-24T05:18:59;99846.00;;;21.77
62611;BMP280;48683;48.084;17.272;2023-07-24T05:21:25;99855.00;;;21.92
62611;BMP280;48683;48.084;17.272;2023-07-24T05:23:50;99857.06;;;21.97
62611;BMP280;48683;48.084;17.272;2023-07-24T05:26:15;99859.31;;;21.99
62611;BMP280;48683;48.084;17.272;2023-07-24T05:28:40;99867.16;;;22.06
62611;BMP280;48683;48.084;17.272;2023-07-24T05:31:06;99860.44;;;22.07
62611;BMP280;48683;48.084;17.272;2023-07-24T05:33:32;99868.25;;;22.14
62611;BMP280;48683;48.084;17.272;2023-07-24T05:36:01;99874.19;;;22.27
62611;BMP280;48683;48.084;17.272;2023-07-24T05:38:27;99879.56;;;22.51
62611;BMP280;48683;48.084;17.272;2023-07-24T05:40:56;99874.81;;;22.66
62611;BMP280;48683;48.084;17.272;2023-07-24T05:43:21;99884.50;;;22.82
62611;BMP280;48683;48.084;17.272;2023-07-24T05:45:46;99881.56;;;22.85
62611;BMP280;48683;48.084;17.272;2023-07-24T05:48:11;99877.22;;;22.93
62611;BMP280;48683;48.084;17.272;2023-07-24T05:50:37;99874.94;;;22.92
62611;BMP280;48683;48.084;17.272;2023-07-24T05:53:02;99868.78;;;22.97
62611;BMP280;48683;48.084;17.272;2023-07-24T05:55:27;99866.34;;;22.99
62611;BMP280;48683;48.084;17.272;2023-07-24T05:57:52;99869.91;;;23.05
62611;BMP280;48683;48.084;17.272;2023-07-24T06:00:17;99870.78;;;23.16
62611;BMP280;48683;48.084;17.272;2023-07-24T06:02:43;99866.06;;;23.37
62611;BMP280;48683;48.084;17.272;2023-07-24T06:05:08;99867.19;;;23.45
62611;BMP280;48683;48.084;17.272;2023-07-24T06:07:33;99862.72;;;23.48
62611;BMP280;48683;48.084;17.272;2023-07-24T06:09:59;99863.69;;;23.65
62611;BMP280;48683;48.084;17.272;2023-07-24T06:12:24;99853.09;;;23.78
62611;BMP280;48683;48.084;17.272;2023-07-24T06:14:49;99847.41;;;24.13
62611;BMP280;48683;48.084;17.272;2023-07-24T06:17:14;99843.25;;;24.18
62611;BMP280;48683;48.084;17.272;2023-07-24T06:19:40;99847.09;;;24.31
62611;BMP280;48683;48.084;17.272;2023-07-24T06:22:05;99844.25;;;24.20
62611;BMP280;48683;48.084;17.272;2023-07-24T06:24:30;99844.97;;;24.46
62611;BMP280;48683;48.084;17.272;2023-07-24T06:26:55;99836.69;;;24.78
62611;BMP280;48683;48.084;17.272;2023-07-24T06:29:20;99832.66;;;24.73
62611;BMP280;48683;48.084;17.272;2023-07-24T06:31:47;99829.56;;;25.02
62611;BMP280;48683;48.084;17.272;2023-07-24T06:34:12;99821.38;;;25.14
62611;BMP280;48683;48.084;17.272;2023-07-24T06:36:37;99815.69;;;25.23
62611;BMP280;48683;48.084;17.272;2023-07-24T06:39:03;99802.75;;;25.40
62611;BMP280;48683;48.084;17.272;2023-07-24T06:41:28;99799.22;;;25.34
62611;BMP280;48683;48.084;17.272;2023-07-24T06:43:53;99795.81;;;25.56
62611;BMP280;48683;48.084;17.272;2023-07-24T06:46:18;99782.09;;;25.67
62611;BMP280;48683;48.084;17.272;2023-07-24T06:48:43;99779.56;;;25.58
62611;BMP280;48683;48.084;17.272;2023-07-24T06:51:09;99783.09;;;25.86
62611;BMP280;48683;48.084;17.272;2023-07-24T06:53:34;99779.59;;;26.02
62611;BMP280;48683;48.084;17.272;2023-07-24T06:55:59;99778.59;;;26.11
62611;BMP280;48683;48.084;17.272;2023-07-24T06:58:24;99776.31;;;26.15
62611;BMP280;48683;48.084;17.272;2023-07-24T07:00:50;99774.34;;;26.10
62611;BMP280;48683;48.084;17.272;2023-07-24T07:03:15;99776.09;;;26.24
62611;BMP280;48683;48.084;17.272;2023-07-24T07:05:40;99780.09;;;26.23
62611;BMP280;48683;48.084;17.272;2023-07-24T07:08:05;99782.06;;;26.39
62611;BMP280;48683;48.084;17.272;2023-07-24T07:10:31;99781.06;;;26.31
62611;BMP280;48683;48.084;17.272;2023-07-24T07:12:56;99786.50;;;26.64
62611;BMP280;48683;48.084;17.272;2023-07-24T07:15:21;99795.25;;;26.68
62611;BMP280;48683;48.084;17.272;2023-07-24T07:17:47;99778.94;;;26.87
62611;BMP280;48683;48.084;17.272;2023-07-24T07:20:12;99772.69;;;26.92
62611;BMP280;48683;48.084;17.272;2023-07-24T07:22:37;99784.34;;;27.09
62611;BMP280;48683;48.084;17.272;2023-07-24T07:25:02;99775.50;;;27.27
62611;BMP280;48683;48.084;17.272;2023-07-24T07:27:28;99789.56;;;27.18
62611;BMP280;48683;48.084;17.272;2023-07-24T07:29:53;99781.91;;;27.41
62611;BMP280;48683;48.084;17.272;2023-07-24T07:32:18;99770.41;;;27.37
62611;BMP280;48683;48.084;17.272;2023-07-24T07:34:43;99771.84;;;27.55
62611;BMP280;48683;48.084;17.272;2023-07-24T07:37:08;99760.28;;;27.56
62611;BMP280;48683;48.084;17.272;2023-07-24T07:39:34;99752.84;;;27.81
62611;BMP280;48683;48.084;17.272;2023-07-24T07:41:59;99739.09;;;28.05
62611;BMP280;48683;48.084;17.272;2023-07-24T07:44:24;99732.69;;;27.92
62611;BMP280;48683;48.084;17.272;2023-07-24T07:46:49;99724.56;;;28.05
62611;BMP280;48683;48.084;17.272;2023-07-24T07:49:15;99718.84;;;27.97
62611;BMP280;48683;48.084;17.272;2023-07-24T07:51:40;99720.94;;;28.15
62611;BMP280;48683;48.084;17.272;2023-07-24T07:54:05;99710.44;;;28.14
62611;BMP280;48683;48.084;17.272;2023-07-24T07:56:31;99712.72;;;28.34
62611;BMP280;48683;48.084;17.272;2023-07-24T07:58:56;99701.25;;;28.49
62611;BMP280;48683;48.084;17.272;2023-07-24T08:01:21;99705.75;;;28.52
62611;BMP280;48683;48.084;17.272;2023-07-24T08:03:46;99707.63;;;28.62
62611;BMP280;48683;48.084;17.272;2023-07-24T08:06:11;99696.16;;;28.77
62611;BMP280;48683;48.084;17.272;2023-07-24T08:08:37;99691.03;;;28.87
62611;BMP280;48683;48.084;17.272;2023-07-24T08:11:05;99687.41;;;28.92
62611;BMP280;48683;48.084;17.272;2023-07-24T08:13:31;99679.56;;;28.96
62611;BMP280;48683;48.084;17.272;2023-07-24T08:15:56;99685.47;;;29.05
62611;BMP280;48683;48.084;17.272;2023-07-24T08:18:21;99681.34;;;29.12
62611;BMP280;48683;48.084;17.272;2023-07-24T08:20:47;99673.16;;;29.06
62611;BMP280;48683;48.084;17.272;2023-07-24T08:23:12;99676.25;;;29.35
62611;BMP280;48683;48.084;17.272;2023-07-24T08:25:37;99672.16;;;29.54
62611;BMP280;48683;48.084;17.272;2023-07-24T08:28:02;99672.16;;;29.54
62611;BMP280;48683;48.084;17.272;2023-07-24T08:30:29;99677.47;;;29.52
62611;BMP280;48683;48.084;17.272;2023-07-24T08:32:54;99672.84;;;29.74
62611;BMP280;48683;48.084;17.272;2023-07-24T08:35:20;99666.13;;;29.69
62611;BMP280;48683;48.084;17.272;2023-07-24T08:37:45;99653.41;;;29.92
62611;BMP280;48683;48.084;17.272;2023-07-24T08:40:10;99648.63;;;30.06
62611;BMP280;48683;48.084;17.272;2023-07-24T08:42:38;99644.56;;;30.20
62611;BMP280;48683;48.084;17.272;2023-07-24T08:45:03;99648.63;;;30.45
62611;BMP280;48683;48.084;17.272;2023-07-24T08:47:29;99638.16;;;30.51
62611;BMP280;48683;48.084;17.272;2023-07-24T08:49:54;99637.38;;;30.64
62611;BMP280;48683;48.084;17.272;2023-07-24T08:52:20;99643.34;;;30.68
62611;BMP280;48683;48.084;17.272;2023-07-24T08:54:45;99635.38;;;30.65
62611;BMP280;48683;48.084;17.272;2023-07-24T08:57:10;99637.75;;;30.81
62611;BMP280;48683;48.084;17.272;2023-07-24T08:59:36;99629.59;;;30.96
62611;BMP280;48683;48.084;17.272;2023-07-24T09:02:01;99627.13;;;31.06
62611;BMP280;48683;48.084;17.272;2023-07-24T09:04:26;99622.88;;;31.05
62611;BMP280;48683;48.084;17.272;2023-07-24T09:06:52;99616.56;;;31.25
62611;BMP280;48683;48.084;17.272;2023-07-24T09:09:17;99613.03;;;31.45
62611;BMP280;48683;48.084;17.272;2023-07-24T09:11:50;99612.47;;;31.39
62611;BMP280;48683;48.084;17.272;2023-07-24T09:14:24;99606.91;;;31.39
62611;BMP280;48683;48.084;17.272;2023-07-24T09:16:50;99601.06;;;31.50
62611;BMP280;48683;48.084;17.272;2023-07-24T09:19:19;99601.19;;;31.66
62611;BMP280;48683;48.084;17.272;2023-07-24T09:21:44;99599.94;;;31.25
62611;BMP280;48683;48.084;17.272;2023-07-24T09:24:10;99594.06;;;31.29
62611;BMP280;48683;48.084;17.272;2023-07-24T09:26:45;99578.84;;;31.43
62611;BMP280;48683;48.084;17.272;2023-07-24T09:29:11;99580.84;;;31.63
62611;BMP280;48683;48.084;17.272;2023-07-24T09:31:36;99579.06;;;31.73
62611;BMP280;48683;48.084;17.272;2023-07-24T09:34:01;99576.59;;;31.62
62611;BMP280;48683;48.084;17.272;2023-07-24T09:36:27;99566.50;;;31.80
62611;BMP280;48683;48.084;17.272;2023-07-24T09:39:01;99559.50;;;31.79
62611;BMP280;48683;48.084;17.272;2023-07-24T09:41:31;99563.91;;;31.74
62611;BMP280;48683;48.084;17.272;2023-07-24T09:43:59;99550.22;;;31.76
62611;BMP280;48683;48.084;17.272;2023-07-24T09:46:24;99542.56;;;31.97
62611;BMP280;48683;48.084;17.272;2023-07-24T09:48:49;99532.44;;;32.08
62611;BMP280;48683;48.084;17.272;2023-07-24T09:51:15;99524.72;;;32.14
62611;BMP280;48683;48.084;17.272;2023-07-24T09:53:46;99526.03;;;32.28
62611;BMP280;48683;48.084;17.272;2023-07-24T09:56:13;99525.44;;;32.14
62611;BMP280;48683;48.084;17.272;2023-07-24T09:58:39;99521.25;;;32.36
62611;BMP280;48683;48.084;17.272;2023-07-24T10:01:08;99507.81;;;32.63
62611;BMP280;48683;48.084;17.272;2023-07-24T10:03:33;99510.59;;;32.78
62611;BMP280;48683;48.084;17.272;2023-07-24T10:05:59;99507.06;;;32.77
62611;BMP280;48683;48.084;17.272;2023-07-24T10:08:25;99502.44;;;32.72
62611;BMP280;48683;48.084;17.272;2023-07-24T10:10:50;99493.53;;;32.81
62611;BMP280;48683;48.084;17.272;2023-07-24T10:13:17;99486.50;;;32.96
62611;BMP280;48683;48.084;17.272;2023-07-24T10:15:43;99472.03;;;33.05
62611;BMP280;48683;48.084;17.272;2023-07-24T10:18:09;99471.50;;;33.06
62611;BMP280;48683;48.084;17.272;2023-07-24T10:20:35;99466.13;;;33.16
62611;BMP280;48683;48.084;17.272;2023-07-24T10:23:01;99452.91;;;33.39
62611;BMP280;48683;48.084;17.272;2023-07-24T10:25:30;99447.34;;;33.39
62611;BMP280;48683;48.084;17.272;2023-07-24T10:28:02;99435.63;;;33.48
62611;BMP280;48683;48.084;17.272;2023-07-24T10:30:32;99449.38;;;33.46
62611;BMP280;48683;48.084;17.272;2023-07-24T10:35:54;99432.69;;;33.46
62611;BMP280;48683;48.084;17.272;2023-07-24T10:38:19;99427.72;;;33.37
62611;BMP280;48683;48.084;17.272;2023-07-24T10:40:46;99433.88;;;33.20
62611;BMP280;48683;48.084;17.272;2023-07-24T10:43:18;99426.78;;;33.27
62611;BMP280;48683;48.084;17.272;2023-07-24T10:48:12;99411.81;;;33.70
62611;BMP280;48683;48.084;17.272;2023-07-24T10:50:41;99407.75;;;33.71
62611;BMP280;48683;48.084;17.272;2023-07-24T10:53:08;99398.81;;;33.80
62611;BMP280;48683;48.084;17.272;2023-07-24T10:55:33;99390.84;;;33.76
62611;BMP280;48683;48.084;17.272;2023-07-24T10:57:58;99391.00;;;33.78
62611;BMP280;48683;48.084;17.272;2023-07-24T11:00:23;99387.75;;;33.65
62611;BMP280;48683;48.084;17.272;2023-07-24T11:02:49;99384.75;;;33.70
62611;BMP280;48683;48.084;17.272;2023-07-24T11:05:14;99385.44;;;33.78
62611;BMP280;48683;48.084;17.272;2023-07-24T11:07:40;99378.59;;;33.79
62611;BMP280;48683;48.084;17.272;2023-07-24T11:10:14;99382.19;;;33.65
62611;BMP280;48683;48.084;17.272;2023-07-24T11:12:40;99374.44;;;33.88
62611;BMP280;48683;48.084;17.272;2023-07-24T11:15:05;99370.75;;;33.85
62611;BMP280;48683;48.084;17.272;2023-07-24T11:17:34;99372.81;;;33.77
62611;BMP280;48683;48.084;17.272;2023-07-24T11:20:13;99368.06;;;33.70
62611;BMP280;48683;48.084;17.272;2023-07-24T11:22:39;99365.06;;;33.76
62611;BMP280;48683;48.084;17.272;2023-07-24T11:25:04;99362.91;;;33.59
62611;BMP280;48683;48.084;17.272;2023-07-24T11:27:31;99349.72;;;33.67
62611;BMP280;48683;48.084;17.272;2023-07-24T11:29:56;99339.88;;;33.66
62611;BMP280;48683;48.084;17.272;2023-07-24T11:32:21;99338.28;;;33.88
62611;BMP280;48683;48.084;17.272;2023-07-24T11:34:47;99334.97;;;34.07
62611;BMP280;48683;48.084;17.272;2023-07-24T11:37:13;99324.13;;;33.94
62611;BMP280;48683;48.084;17.272;2023-07-24T11:39:39;99315.28;;;33.88
62611;BMP280;48683;48.084;17.272;2023-07-24T11:42:04;99323.78;;;33.90
62611;BMP280;48683;48.084;17.272;2023-07-24T11:44:29;99316.03;;;33.88
62611;BMP280;48683;48.084;17.272;2023-07-24T11:47:04;99315.22;;;33.95
62611;BMP280;48683;48.084;17.272;2023-07-24T11:49:30;99307.63;;;33.96
62611;BMP280;48683;48.084;17.272;2023-07-24T11:52:00;99322.38;;;33.81
62611;BMP280;48683;48.084;17.272;2023-07-24T11:54:25;99309.66;;;33.95
62611;BMP280;48683;48.084;17.272;2023-07-24T11:56:51;99304.53;;;34.09
62611;BMP280;48683;48.084;17.272;2023-07-24T11:59:16;99298.81;;;34.31
62611;BMP280;48683;48.084;17.272;2023-07-24T12:01:45;99296.91;;;34.34
62611;BMP280;48683;48.084;17.272;2023-07-24T12:04:10;99308.78;;;34.10
62611;BMP280;48683;48.084;17.272;2023-07-24T12:06:37;99303.28;;;34.02
62611;BMP280;48683;48.084;17.272;2023-07-24T12:09:03;99304.81;;;34.20
62611;BMP280;48683;48.084;17.272;2023-07-24T12:11:30;99294.69;;;34.32
62611;BMP280;48683;48.084;17.272;2023-07-24T12:13:55;99303.22;;;34.35
62611;BMP280;48683;48.084;17.272;2023-07-24T12:16:20;99302.38;;;34.24
62611;BMP280;48683;48.084;17.272;2023-07-24T12:18:45;99302.06;;;34.13
62611;BMP280;48683;48.084;17.272;2023-07-24T12:21:10;99300.34;;;34.00
62611;BMP280;48683;48.084;17.272;2023-07-24T12:23:36;99289.03;;;34.23
62611;BMP280;48683;48.084;17.272;2023-07-24T12:26:01;99280.78;;;34.32
62611;BMP280;48683;48.084;17.272;2023-07-24T12:28:26;99287.91;;;34.26
62611;BMP280;48683;48.084;17.272;2023-07-24T12:30:51;99274.56;;;34.00
62611;BMP280;48683;48.084;17.272;2023-07-24T12:33:16;99276.53;;;34.07
62611;BMP280;48683;48.084;17.272;2023-07-24T12:35:42;99270.13;;;33.97
62611;BMP280;48683;48.084;17.272;2023-07-24T12:38:08;99281.81;;;33.95
62611;BMP280;48683;48.084;17.272;2023-07-24T12:40:33;99252.44;;;33.52
62611;BMP280;48683;48.084;17.272;2023-07-24T12:42:58;99253.59;;;33.49
62611;BMP280;48683;48.084;17.272;2023-07-24T12:45:23;99248.97;;;33.44
62611;BMP280;48683;48.084;17.272;2023-07-24T12:47:48;99243.66;;;33.31
62611;BMP280;48683;48.084;17.272;2023-07-24T12:50:13;99231.53;;;33.19
62611;BMP280;48683;48.084;17.272;2023-07-24T12:52:39;99240.59;;;33.19
62611;BMP280;48683;48.084;17.272;2023-07-24T12:55:04;99243.03;;;33.08
62611;BMP280;48683;48.084;17.272;2023-07-24T12:57:29;99239.09;;;33.26
62611;BMP280;48683;48.084;17.272;2023-07-24T12:59:55;99233.38;;;33.16
62611;BMP280;48683;48.084;17.272;2023-07-24T13:02:20;99218.19;;;33.17
62611;BMP280;48683;48.084;17.272;2023-07-24T13:04:45;99211.44;;;33.28
62611;BMP280;48683;48.084;17.272;2023-07-24T13:07:10;99219.28;;;33.47
62611;BMP280;48683;48.084;17.272;2023-07-24T13:09:35;99213.25;;;33.65
62611;BMP280;48683;48.084;17.272;2023-07-24T13:12:01;99203.44;;;33.64
62611;BMP280;48683;48.084;17.272;2023-07-24T13:14:26;99200.03;;;33.73
62611;BMP280;48683;48.084;17.272;2023-07-24T13:16:51;99200.06;;;33.91
62611;BMP280;48683;48.084;17.272;2023-07-24T13:19:16;99198.41;;;33.88
62611;BMP280;48683;48.084;17.272;2023-07-24T13:21:42;99181.72;;;33.63
62611;BMP280;48683;48.084;17.272;2023-07-24T13:24:08;99188.69;;;33.47
62611;BMP280;48683;48.084;17.272;2023-07-24T13:26:33;99178.84;;;33.53
62611;BMP280;48683;48.084;17.272;2023-07-24T13:28:58;99176.56;;;33.59
62611;BMP280;48683;48.084;17.272;2023-07-24T13:31:23;99169.09;;;33.45
62611;BMP280;48683;48.084;17.272;2023-07-24T13:33:49;99157.97;;;33.45
62611;BMP280;48683;48.084;17.272;2023-07-24T13:36:14;99162.28;;;33.38
62611;BMP280;48683;48.084;17.272;2023-07-24T13:38:40;99158.06;;;33.29
62611;BMP280;48683;48.084;17.272;2023-07-24T13:41:06;99140.75;;;33.38
62611;BMP280;48683;48.084;17.272;2023-07-24T13:43:31;99138.84;;;33.49
62611;BMP280;48683;48.084;17.272;2023-07-24T13:45:56;99126.63;;;33.44
62611;BMP280;48683;48.084;17.272;2023-07-24T13:48:22;99116.25;;;33.45
62611;BMP280;48683;48.084;17.272;2023-07-24T13:50:47;99116.31;;;33.37
62611;BMP280;48683;48.084;17.272;2023-07-24T13:53:12;99116.75;;;33.51
62611;BMP280;48683;48.084;17.272;2023-07-24T13:55:37;99116.84;;;33.60
62611;BMP280;48683;48.084;17.272;2023-07-24T13:58:02;99123.38;;;33.55